Gillette, WY

6:21 PM MDT on October 24, 2014 (GMT -0600)
Gillette-Campbell County | Change Station
CLOSE
Current Station
Airport
Location: Gillette,
Elevation: 4364 ft
Nearby Weather Stations

Elev 4364 ft 44.34 °N, 105.54 °W | Updated 28 minutes ago

Clear
Clear
56 °F
Feels Like 56 °F
N
8
Wind Variable Wind from NE

Today
High -- | Low -- °F
--% Chance of Precip.
Yesterday
High -- | Low -- °F
Precip. -- in
7:29 AM 6:03 PM
New Moon, 1% visible
Pressure 30.02 in
Visibility 10.0 miles
Clouds Clear
Dew Point 33 °F
Humidity 42%
Rainfall 0.00 in
Snow Depth Not available.
UV 0 out of 12
Pollen 1.60 out of 12
Air Quality Not available.
Flu Activity Sporadic
METAR KGCC 242353Z AUTO 04007KT 10SM CLR 13/01 A3007 RMK AO2 SLP164 T01330006 53009

More Conditions Fewer Conditions

Pressure 30.02 in
Visibility 10.0 miles
Clouds Clear
Dew Point 33 °F
Humidity 42%
Rainfall 0.00 in
Snow Depth Not available.
UV 0 out of 12
Pollen 1.60 out of 12
Air Quality Not available.
Flu Activity Sporadic
METAR KGCC 242353Z AUTO 04007KT 10SM CLR 13/01 A3007 RMK AO2 SLP164 T01330006 53009

More Conditions Fewer Conditions

10-Day Weather Forecast

Almanac

Astronomy

Oct. 24, 2014 Rise Set
Actual Time 7:29 AM MDT 6:03 PM MDT
Civil Twilight 6:59 AM MDT 6:33 PM MDT
Nautical Twilight 6:25 AM MDT 7:07 PM MDT
Astronomical Twilight 5:52 AM MDT 7:40 PM MDT
Moon 8:12 AM MDT (10/24) 6:43 PM MDT (10/24)
Length of Visible Light 11h 33m
Length of Day
10h 33m
Tomorrow will be 2m 53s shorter.
New Moon, 1% of the Moon is Illuminated
Today
New Moon
Oct 30
First Quarter
Nov 6
Full
Nov 14
Last Quarter
Nov 22
New

Today's Extremes

State Highs State Lows

Community

WunderPhotos

Upload Photos

1,764,727 photos uploaded!

WunderBlogs® & News

Nearby

Snow Depth

Station Depth Elevation
Laprele Creek 0 in 8375 ft
Windy Peak 0 in 7900 ft
Sand Lake 2 in 10050 ft
Sylvan Lake 0 in 8420 ft
Big Sandy Opening 0 in 9080 ft

Earthquake Activity

City Distance Mag. Time & Date
No recent earthquake activity has been reported nearby.
Minimum magnitude displayed is 2.5.

Coastal Water Temperatures

Place Temperature
No Stations Reporting

Nearby Weather Stations